Time;durP1;ratioP1;P1;durP2;ratioP2;P2;SDS_P1;SDS_P2;PMS_P1;PMS_P2;Temp;Humidity;BMP_temperature;BMP_pressure;BME280_temperature;BME280_humidity;BME280_pressure;Samples;Min_cycle;Max_cycle;Signal;HPM_P1;HPM_P2
2022/04/04 00:00:23;;;;;;;;;;;9.50;99.90;;;;;;5093469;28;20258;-77
2022/04/04 00:02:48;;;;;;;;;;;9.50;99.90;;;;;;5093660;28;19951;-81
2022/04/04 00:05:15;;;;;;;;;;;9.50;99.90;;;;;;5093548;28;19908;-78
2022/04/04 00:07:41;;;;;;;;;;;9.60;99.90;;;;;;5093090;28;19914;-77
2022/04/04 00:10:06;;;;;;;;;;;9.60;99.90;;;;;;5093819;28;19912;-78
2022/04/04 00:12:32;;;;;;;;;;;9.60;99.90;;;;;;5092849;28;19915;-78
2022/04/04 00:14:58;;;;;;;;;;;9.60;99.90;;;;;;5093851;28;20392;-78
2022/04/04 00:17:23;;;;;;;;;;;9.70;99.90;;;;;;5093396;28;19952;-77
2022/04/04 00:19:49;;;;;;;;;;;9.70;99.90;;;;;;5093350;28;19912;-77
2022/04/04 00:22:15;;;;;;;;;;;9.70;99.90;;;;;;5093582;28;19908;-77
2022/04/04 00:24:40;;;;;;;;;;;9.80;99.90;;;;;;5092714;28;19908;-76
2022/04/04 00:27:06;;;;;;;;;;;9.80;99.90;;;;;;5093325;28;20265;-77
2022/04/04 00:29:32;;;;;;;;;;;9.80;99.90;;;;;;5092482;28;19916;-77
2022/04/04 00:31:58;;;;;;;;;;;9.80;99.90;;;;;;5093232;28;20293;-77
2022/04/04 00:34:23;;;;;;;;;;;9.80;99.90;;;;;;5093050;28;19945;-77
2022/04/04 00:36:49;;;;;;;;;;;9.90;99.90;;;;;;5093022;28;19915;-77
2022/04/04 00:39:19;;;;;;;;;;;9.90;99.90;;;;;;5093294;28;20304;-77
2022/04/04 00:41:48;;;;;;;;;;;9.90;99.90;;;;;;5092652;28;19908;-78
2022/04/04 00:44:13;;;;;;;;;;;9.90;99.90;;;;;;5093048;28;19916;-76
2022/04/04 00:46:40;;;;;;;;;;;9.90;99.90;;;;;;5092580;28;19908;-77
2022/04/04 00:49:06;;;;;;;;;;;9.90;99.90;;;;;;5092993;28;19935;-77
2022/04/04 00:51:31;;;;;;;;;;;9.90;99.90;;;;;;5091234;28;20366;-77
2022/04/04 00:53:57;;;;;;;;;;;9.90;99.90;;;;;;5093540;28;20307;-76
2022/04/04 00:56:26;;;;;;;;;;;10.00;99.90;;;;;;5092813;28;19919;-77
2022/04/04 00:58:51;;;;;;;;;;;10.00;99.90;;;;;;5092601;28;19909;-76
2022/04/04 01:01:17;;;;;;;;;;;10.00;99.90;;;;;;5092654;28;19920;-76
2022/04/04 01:03:42;;;;;;;;;;;10.00;99.90;;;;;;5092166;28;20003;-76
2022/04/04 01:06:08;;;;;;;;;;;10.00;99.90;;;;;;5092969;28;19908;-76
2022/04/04 01:08:33;;;;;;;;;;;10.00;99.90;;;;;;5092802;28;19912;-77
2022/04/04 01:10:59;;;;;;;;;;;10.00;99.90;;;;;;5093152;28;19920;-76
2022/04/04 01:13:25;;;;;;;;;;;10.00;99.90;;;;;;5092730;28;19908;-76
2022/04/04 01:15:50;;;;;;;;;;;10.10;99.90;;;;;;5092733;28;20381;-76
2022/04/04 01:18:16;;;;;;;;;;;10.10;99.90;;;;;;5093052;28;20011;-76
2022/04/04 01:20:41;;;;;;;;;;;10.10;99.90;;;;;;5091800;28;20008;-76
2022/04/04 01:23:07;;;;;;;;;;;10.10;99.90;;;;;;5093278;28;19908;-76
2022/04/04 01:25:34;;;;;;;;;;;10.10;99.90;;;;;;5096154;28;19912;-76
2022/04/04 01:28:00;;;;;;;;;;;10.10;99.90;;;;;;5096701;28;19915;-76
2022/04/04 01:30:26;;;;;;;;;;;10.20;99.90;;;;;;5095684;28;20331;-77
2022/04/04 01:32:52;;;;;;;;;;;10.20;99.90;;;;;;5096142;28;19908;-77
2022/04/04 01:35:18;;;;;;;;;;;10.20;99.90;;;;;;5096579;28;19931;-77
2022/04/04 01:37:43;;;;;;;;;;;10.20;99.90;;;;;;5095087;28;19908;-77
2022/04/04 01:40:10;;;;;;;;;;;10.20;99.90;;;;;;5096666;28;20345;-77
2022/04/04 01:42:37;;;;;;;;;;;10.20;99.90;;;;;;5096152;28;19909;-77
2022/04/04 01:45:09;;;;;;;;;;;10.20;99.90;;;;;;5096853;28;19908;-77
2022/04/04 01:47:35;;;;;;;;;;;10.20;99.90;;;;;;5096231;28;19909;-76
2022/04/04 01:50:02;;;;;;;;;;;10.30;99.90;;;;;;5096310;28;19916;-77
2022/04/04 01:52:28;;;;;;;;;;;10.30;99.90;;;;;;5096425;28;19908;-76
2022/04/04 01:54:53;;;;;;;;;;;10.30;99.90;;;;;;5095529;28;19912;-77
2022/04/04 01:57:19;;;;;;;;;;;10.30;99.90;;;;;;5096182;28;20349;-77
2022/04/04 01:59:44;;;;;;;;;;;10.30;99.90;;;;;;5095226;28;20004;-76
2022/04/04 02:02:10;;;;;;;;;;;10.30;99.90;;;;;;5096304;28;19944;-76
2022/04/04 02:04:38;;;;;;;;;;;10.30;99.90;;;;;;5095036;28;20308;-76
2022/04/04 02:07:05;;;;;;;;;;;10.30;99.90;;;;;;5096311;28;20357;-76
2022/04/04 02:09:32;;;;;;;;;;;10.30;99.90;;;;;;5095522;28;20306;-76
2022/04/04 02:11:58;;;;;;;;;;;10.40;99.90;;;;;;5094650;28;20356;-77
2022/04/04 02:14:23;;;;;;;;;;;10.40;99.90;;;;;;5095587;28;19912;-76
2022/04/04 02:16:49;;;;;;;;;;;10.40;99.90;;;;;;5095276;28;19922;-77
2022/04/04 02:19:16;;;;;;;;;;;10.40;99.90;;;;;;5095945;28;19908;-77
2022/04/04 02:21:41;;;;;;;;;;;10.40;99.90;;;;;;5095006;28;20397;-77
2022/04/04 02:24:07;;;;;;;;;;;10.40;99.90;;;;;;5095678;28;20010;-76
2022/04/04 02:26:33;;;;;;;;;;;10.40;99.90;;;;;;5095632;28;19908;-76
2022/04/04 02:28:58;;;;;;;;;;;10.50;99.90;;;;;;5095945;28;20262;-77
2022/04/04 02:31:24;;;;;;;;;;;10.50;99.90;;;;;;5096127;28;19913;-77
2022/04/04 02:33:50;;;;;;;;;;;10.50;99.90;;;;;;5094897;28;20319;-77
2022/04/04 02:36:16;;;;;;;;;;;10.50;99.90;;;;;;5093609;28;20316;-77
2022/04/04 02:38:41;;;;;;;;;;;10.50;99.90;;;;;;5094956;28;19909;-77
2022/04/04 02:41:08;;;;;;;;;;;10.50;99.90;;;;;;5095470;28;19919;-77
2022/04/04 02:43:33;;;;;;;;;;;10.50;99.90;;;;;;5095382;28;19915;-77
2022/04/04 02:45:59;;;;;;;;;;;10.50;99.90;;;;;;5094867;28;19908;-78
2022/04/04 02:48:24;;;;;;;;;;;10.50;99.90;;;;;;5095244;28;19931;-78
2022/04/04 02:50:52;;;;;;;;;;;10.60;99.90;;;;;;5094562;28;19912;-78
2022/04/04 02:53:18;;;;;;;;;;;10.50;99.90;;;;;;5095490;28;19961;-78
2022/04/04 02:58:28;;;;;;;;;;;10.50;99.90;;;;;;5106605;28;19914;-78
2022/04/04 03:00:54;;;;;;;;;;;10.50;99.90;;;;;;5094537;28;20034;-78
2022/04/04 03:03:19;;;;;;;;;;;10.50;99.90;;;;;;5094785;28;19950;-78
2022/04/04 03:05:46;;;;;;;;;;;10.50;99.90;;;;;;5093393;28;19909;-78
2022/04/04 03:08:12;;;;;;;;;;;10.50;99.90;;;;;;5094738;28;19912;-78
2022/04/04 03:10:38;;;;;;;;;;;10.50;99.90;;;;;;5094144;28;20380;-77
2022/04/04 03:13:05;;;;;;;;;;;10.50;99.90;;;;;;5094220;28;20361;-78
2022/04/04 03:15:31;;;;;;;;;;;10.50;99.90;;;;;;5094547;28;20003;-78
2022/04/04 03:17:57;;;;;;;;;;;10.50;99.90;;;;;;5093863;28;19904;-78
2022/04/04 03:20:24;;;;;;;;;;;10.50;99.90;;;;;;5094287;28;20317;-78
2022/04/04 03:22:50;;;;;;;;;;;10.40;99.90;;;;;;5094030;28;19915;-77
2022/04/04 03:25:17;;;;;;;;;;;10.50;99.90;;;;;;5094619;28;19912;-78
2022/04/04 03:27:43;;;;;;;;;;;10.40;99.90;;;;;;5093834;28;19915;-77
2022/04/04 03:30:12;;;;;;;;;;;10.40;99.90;;;;;;5094454;28;19916;-78
2022/04/04 03:32:38;;;;;;;;;;;10.50;99.90;;;;;;5093058;28;19908;-77
2022/04/04 03:35:04;;;;;;;;;;;10.50;99.90;;;;;;5094413;28;20347;-78
2022/04/04 03:37:31;;;;;;;;;;;10.50;99.90;;;;;;5093124;28;20355;-77
2022/04/04 03:39:57;;;;;;;;;;;10.50;99.90;;;;;;5093893;28;19912;-78
2022/04/04 03:42:23;;;;;;;;;;;10.50;99.90;;;;;;5094480;28;19912;-77
2022/04/04 03:44:48;;;;;;;;;;;10.50;99.90;;;;;;5093710;28;19908;-78
2022/04/04 03:47:14;;;;;;;;;;;10.50;99.90;;;;;;5093120;28;19908;-78
2022/04/04 03:49:40;;;;;;;;;;;10.50;99.90;;;;;;5093411;28;20357;-78
2022/04/04 03:52:06;;;;;;;;;;;10.40;99.90;;;;;;5093788;28;19927;-78
2022/04/04 03:54:32;;;;;;;;;;;10.50;99.90;;;;;;5094107;28;19915;-78
2022/04/04 03:56:58;;;;;;;;;;;10.50;99.90;;;;;;5093308;28;20002;-77
2022/04/04 03:59:24;;;;;;;;;;;10.50;99.90;;;;;;5094353;28;19941;-77
2022/04/04 04:01:49;;;;;;;;;;;10.50;99.90;;;;;;5093321;28;19927;-77
2022/04/04 04:04:15;;;;;;;;;;;10.50;99.90;;;;;;5093916;28;19919;-78
2022/04/04 04:06:41;;;;;;;;;;;10.50;99.90;;;;;;5093656;28;20237;-77
2022/04/04 04:09:06;;;;;;;;;;;10.50;99.90;;;;;;5093317;28;19970;-77
2022/04/04 04:11:32;;;;;;;;;;;10.50;99.90;;;;;;5093765;28;19912;-77
2022/04/04 04:14:00;;;;;;;;;;;10.50;99.90;;;;;;5093150;28;19908;-77
2022/04/04 04:16:26;;;;;;;;;;;10.50;99.90;;;;;;5102315;28;19935;-79
2022/04/04 04:18:52;;;;;;;;;;;10.50;99.90;;;;;;5101988;28;19953;-77
2022/04/04 04:21:17;;;;;;;;;;;10.50;99.90;;;;;;5093724;28;19912;-77
2022/04/04 04:23:43;;;;;;;;;;;10.50;99.90;;;;;;5093439;28;19999;-76
2022/04/04 04:26:11;;;;;;;;;;;10.50;99.90;;;;;;5093316;28;19947;-77
2022/04/04 04:28:37;;;;;;;;;;;10.50;99.90;;;;;;5093276;28;19964;-77
2022/04/04 04:31:03;;;;;;;;;;;10.50;99.90;;;;;;5092573;28;20482;-77
2022/04/04 04:33:29;;;;;;;;;;;10.50;99.90;;;;;;5093465;28;19931;-77
2022/04/04 04:35:55;;;;;;;;;;;10.50;99.90;;;;;;5092604;28;20246;-77
2022/04/04 04:38:20;;;;;;;;;;;10.50;99.90;;;;;;5093463;28;19908;-77
2022/04/04 04:40:46;;;;;;;;;;;10.50;99.90;;;;;;5092594;28;19912;-77
2022/04/04 04:43:11;;;;;;;;;;;10.50;99.90;;;;;;5093388;28;20319;-77
2022/04/04 04:45:37;;;;;;;;;;;10.50;99.90;;;;;;5093253;28;19908;-77
2022/04/04 04:48:03;;;;;;;;;;;10.50;99.90;;;;;;5092240;28;20034;-77
2022/04/04 04:50:29;;;;;;;;;;;10.50;99.90;;;;;;5093031;28;19912;-77
2022/04/04 04:52:55;;;;;;;;;;;10.50;99.90;;;;;;5092295;28;19916;-77
2022/04/04 04:55:22;;;;;;;;;;;10.50;99.90;;;;;;5092892;28;19908;-77
2022/04/04 04:57:48;;;;;;;;;;;10.50;99.90;;;;;;5092081;28;20381;-77
2022/04/04 05:00:15;;;;;;;;;;;10.50;99.90;;;;;;5092452;28;20286;-77
2022/04/04 05:02:40;;;;;;;;;;;10.50;99.90;;;;;;5092800;28;19908;-77
2022/04/04 05:05:06;;;;;;;;;;;10.50;99.90;;;;;;5092390;28;19924;-77
2022/04/04 05:07:32;;;;;;;;;;;10.50;99.90;;;;;;5092980;28;19908;-78
2022/04/04 05:09:58;;;;;;;;;;;10.50;99.90;;;;;;5092307;28;19912;-77
2022/04/04 05:12:23;;;;;;;;;;;10.50;99.90;;;;;;5093235;28;20369;-77
2022/04/04 05:14:49;;;;;;;;;;;10.50;99.90;;;;;;5092426;28;19912;-77
2022/04/04 05:17:15;;;;;;;;;;;10.50;99.90;;;;;;5092640;28;19908;-77
2022/04/04 05:19:41;;;;;;;;;;;10.50;99.90;;;;;;5092439;28;19963;-77
2022/04/04 05:22:07;;;;;;;;;;;10.50;99.90;;;;;;5092063;28;19908;-77
2022/04/04 05:24:33;;;;;;;;;;;10.50;99.90;;;;;;5092755;28;19908;-78
2022/04/04 05:26:59;;;;;;;;;;;10.50;99.90;;;;;;5092385;28;19919;-78
2022/04/04 05:29:26;;;;;;;;;;;10.60;99.90;;;;;;5092716;28;20010;-77
2022/04/04 05:31:55;;;;;;;;;;;10.60;99.90;;;;;;5092254;28;19912;-78
2022/04/04 05:34:22;;;;;;;;;;;10.50;99.90;;;;;;5092809;28;20054;-77
2022/04/04 05:36:47;;;;;;;;;;;10.60;99.90;;;;;;5097957;28;19931;-77
2022/04/04 05:39:13;;;;;;;;;;;10.60;99.90;;;;;;5092858;28;19908;-77
2022/04/04 05:41:39;;;;;;;;;;;10.60;99.90;;;;;;5092548;28;19908;-77
2022/04/04 05:44:05;;;;;;;;;;;10.60;99.90;;;;;;5092107;28;20402;-77
2022/04/04 05:46:31;;;;;;;;;;;10.60;99.90;;;;;;5092534;28;19908;-77
2022/04/04 05:48:56;;;;;;;;;;;10.60;99.90;;;;;;5091792;28;20053;-77
2022/04/04 05:51:22;;;;;;;;;;;10.60;99.90;;;;;;5092629;28;19982;-77
2022/04/04 05:53:48;;;;;;;;;;;10.60;99.90;;;;;;5092390;28;19915;-77
2022/04/04 05:56:13;;;;;;;;;;;10.60;99.90;;;;;;5092285;28;19908;-77
2022/04/04 05:58:40;;;;;;;;;;;10.60;99.90;;;;;;5092289;28;19914;-77
2022/04/04 06:01:08;;;;;;;;;;;10.60;99.90;;;;;;5091680;28;19920;-77
2022/04/04 06:03:34;;;;;;;;;;;10.60;99.90;;;;;;5092097;28;19915;-77
2022/04/04 06:06:01;;;;;;;;;;;10.60;99.90;;;;;;5091612;28;19971;-78
2022/04/04 06:08:26;;;;;;;;;;;10.60;99.90;;;;;;5091966;28;19920;-78
2022/04/04 06:10:52;;;;;;;;;;;10.60;99.90;;;;;;5092699;28;19938;-77
2022/04/04 06:13:18;;;;;;;;;;;10.60;99.90;;;;;;5095891;28;20014;-78
2022/04/04 06:15:45;;;;;;;;;;;10.60;99.90;;;;;;5095569;28;20350;-77
2022/04/04 06:18:10;;;;;;;;;;;10.60;99.90;;;;;;5095392;28;20045;-77
2022/04/04 06:20:36;;;;;;;;;;;10.60;99.90;;;;;;5095380;28;20361;-77
2022/04/04 06:23:02;;;;;;;;;;;10.60;99.90;;;;;;5094925;28;19916;-77
2022/04/04 06:25:28;;;;;;;;;;;10.60;99.90;;;;;;5095343;28;19908;-77
2022/04/04 06:27:54;;;;;;;;;;;10.60;99.90;;;;;;5095094;28;19908;-77
2022/04/04 06:30:20;;;;;;;;;;;10.70;99.90;;;;;;5095375;28;19912;-77
2022/04/04 06:32:46;;;;;;;;;;;10.70;99.90;;;;;;5095553;28;19912;-77
2022/04/04 06:35:12;;;;;;;;;;;10.70;99.90;;;;;;5094683;28;20046;-77
2022/04/04 06:37:38;;;;;;;;;;;10.70;99.90;;;;;;5095566;28;19930;-77
2022/04/04 06:40:04;;;;;;;;;;;10.70;99.90;;;;;;5094896;28;20349;-78
2022/04/04 06:42:34;;;;;;;;;;;10.70;99.90;;;;;;5094764;28;19914;-78
2022/04/04 06:44:59;;;;;;;;;;;10.70;99.90;;;;;;5091613;28;20387;-78
2022/04/04 06:47:26;;;;;;;;;;;10.70;99.90;;;;;;5093714;28;19908;-78
2022/04/04 06:49:52;;;;;;;;;;;10.80;99.90;;;;;;5095477;28;19912;-78
2022/04/04 06:52:18;;;;;;;;;;;10.80;99.90;;;;;;5094826;28;19918;-78
2022/04/04 06:54:44;;;;;;;;;;;10.80;99.90;;;;;;5096644;28;19951;-80
2022/04/04 06:57:10;;;;;;;;;;;10.80;99.90;;;;;;5096427;28;19931;-79
2022/04/04 06:59:35;;;;;;;;;;;10.80;99.90;;;;;;5095041;28;19908;-78
2022/04/04 07:02:01;;;;;;;;;;;10.90;99.90;;;;;;5072771;28;20016;-77
2022/04/04 07:04:26;;;;;;;;;;;10.90;99.90;;;;;;5074522;28;19912;-78
2022/04/04 07:06:52;;;;;;;;;;;10.90;99.90;;;;;;5074489;28;19915;-78
2022/04/04 07:09:18;;;;;;;;;;;10.90;99.90;;;;;;5074045;28;19920;-78
2022/04/04 07:11:43;;;;;;;;;;;10.90;99.90;;;;;;5074352;28;19916;-78
2022/04/04 07:14:10;;;;;;;;;;;11.00;99.90;;;;;;5073908;28;19944;-78
2022/04/04 07:16:36;;;;;;;;;;;11.00;99.90;;;;;;5073927;28;19909;-78
2022/04/04 07:19:02;;;;;;;;;;;11.00;99.90;;;;;;5073805;28;19916;-78
2022/04/04 07:21:28;;;;;;;;;;;11.00;99.90;;;;;;5074313;28;19932;-78
2022/04/04 07:23:54;;;;;;;;;;;11.00;99.90;;;;;;5074361;28;20321;-78
2022/04/04 07:26:21;;;;;;;;;;;11.10;99.90;;;;;;5073437;28;19916;-78
2022/04/04 07:28:47;;;;;;;;;;;11.00;99.90;;;;;;5073993;28;19918;-78
2022/04/04 07:31:16;;;;;;;;;;;11.00;99.90;;;;;;5073380;28;20007;-79
2022/04/04 07:33:42;;;;;;;;;;;11.10;99.90;;;;;;5074112;28;19995;-76
2022/04/04 07:36:08;;;;;;;;;;;11.10;99.90;;;;;;5073435;28;19944;-76
2022/04/04 07:38:33;;;;;;;;;;;11.10;99.90;;;;;;5073845;28;20277;-76
2022/04/04 07:40:59;;;;;;;;;;;11.10;99.90;;;;;;5073162;28;19908;-78
2022/04/04 07:43:25;;;;;;;;;;;11.10;99.90;;;;;;5074344;28;20002;-76
2022/04/04 07:45:51;;;;;;;;;;;11.10;99.90;;;;;;5075297;28;19909;-75
2022/04/04 07:48:16;;;;;;;;;;;11.10;99.90;;;;;;5078672;28;19962;-77
2022/04/04 07:50:44;;;;;;;;;;;11.20;99.90;;;;;;5074189;28;19912;-75
2022/04/04 07:53:10;;;;;;;;;;;11.20;99.90;;;;;;5073078;28;19912;-76
2022/04/04 07:55:36;;;;;;;;;;;11.20;99.90;;;;;;5073423;28;20338;-76
2022/04/04 07:58:02;;;;;;;;;;;11.20;99.90;;;;;;5073070;28;19931;-76
2022/04/04 08:00:28;;;;;;;;;;;11.20;99.90;;;;;;5080657;28;19920;-76
2022/04/04 08:02:54;;;;;;;;;;;11.30;99.90;;;;;;5093225;28;20426;-76
2022/04/04 08:05:21;;;;;;;;;;;11.30;99.90;;;;;;5093061;28;19995;-76
2022/04/04 08:07:48;;;;;;;;;;;11.30;99.90;;;;;;5091928;28;19916;-76
2022/04/04 08:10:14;;;;;;;;;;;11.30;99.90;;;;;;5092378;28;19912;-76
2022/04/04 08:12:39;;;;;;;;;;;11.30;99.90;;;;;;5092631;28;20226;-76
2022/04/04 08:15:05;;;;;;;;;;;11.40;99.90;;;;;;5092910;28;19915;-76
2022/04/04 08:17:31;;;;;;;;;;;11.40;99.90;;;;;;5093582;28;20341;-76
2022/04/04 08:19:57;;;;;;;;;;;11.40;99.90;;;;;;5092857;28;20402;-75
2022/04/04 08:22:23;;;;;;;;;;;11.50;99.90;;;;;;5092901;28;19912;-76
2022/04/04 08:24:49;;;;;;;;;;;11.40;99.90;;;;;;5093438;28;20418;-76
2022/04/04 08:27:14;;;;;;;;;;;11.40;99.90;;;;;;5092742;28;20354;-76
2022/04/04 08:29:40;;;;;;;;;;;11.40;99.90;;;;;;5093223;28;19951;-75
2022/04/04 08:32:06;;;;;;;;;;;11.50;99.90;;;;;;5091582;28;20296;-76
2022/04/04 08:34:32;;;;;;;;;;;11.50;99.90;;;;;;5092494;28;19916;-75
2022/04/04 08:36:57;;;;;;;;;;;11.50;99.90;;;;;;5092970;28;20386;-76
2022/04/04 08:39:23;;;;;;;;;;;11.60;99.90;;;;;;5092644;28;19911;-76
2022/04/04 08:41:49;;;;;;;;;;;11.50;99.90;;;;;;5097416;28;20010;-75
2022/04/04 08:44:15;;;;;;;;;;;11.50;99.90;;;;;;5094697;28;19908;-76
2022/04/04 08:46:41;;;;;;;;;;;11.60;99.90;;;;;;5093172;28;19915;-75
2022/04/04 08:49:06;;;;;;;;;;;11.60;99.90;;;;;;5092403;28;20319;-76
2022/04/04 08:51:32;;;;;;;;;;;11.70;99.90;;;;;;5093330;28;19958;-76
2022/04/04 08:53:58;;;;;;;;;;;11.70;99.90;;;;;;5092629;28;20357;-76
2022/04/04 08:56:24;;;;;;;;;;;11.80;99.90;;;;;;5092176;28;19912;-76
2022/04/04 08:58:51;;;;;;;;;;;11.80;99.90;;;;;;5092880;28;19954;-76
2022/04/04 09:01:18;;;;;;;;;;;11.90;99.90;;;;;;5092368;28;19923;-76
2022/04/04 09:03:44;;;;;;;;;;;11.90;99.90;;;;;;5091425;28;20277;-76
2022/04/04 09:06:09;;;;;;;;;;;12.00;99.90;;;;;;5092476;28;19908;-76
2022/04/04 09:08:51;;;;;;;;;;;12.00;99.90;;;;;;5092731;28;19919;-76
2022/04/04 09:11:16;;;;;;;;;;;12.00;99.90;;;;;;5092225;28;19916;-76
2022/04/04 09:13:43;;;;;;;;;;;12.10;99.90;;;;;;5092467;28;19917;-76
2022/04/04 09:16:10;;;;;;;;;;;12.10;99.90;;;;;;5092081;28;19931;-76
2022/04/04 09:18:35;;;;;;;;;;;12.20;99.90;;;;;;5092724;28;20005;-76
2022/04/04 09:21:01;;;;;;;;;;;12.10;99.90;;;;;;5092351;28;20380;-76
2022/04/04 09:23:32;;;;;;;;;;;12.10;99.90;;;;;;5090890;28;20315;-76
2022/04/04 09:26:00;;;;;;;;;;;12.20;99.90;;;;;;5093126;28;19915;-76
2022/04/04 09:28:25;;;;;;;;;;;12.30;99.90;;;;;;5091813;28;19912;-76
2022/04/04 09:31:06;;;;;;;;;;;12.40;99.90;;;;;;5092501;28;19918;-75
2022/04/04 09:33:38;;;;;;;;;;;12.50;99.90;;;;;;5092487;28;19908;-76
2022/04/04 09:36:04;;;;;;;;;;;12.60;99.90;;;;;;5092305;28;19908;-76
2022/04/04 09:38:33;;;;;;;;;;;12.70;99.90;;;;;;5091948;28;19908;-76
2022/04/04 09:41:06;;;;;;;;;;;12.70;99.90;;;;;;5092310;28;19908;-75
2022/04/04 09:43:50;;;;;;;;;;;12.80;99.90;;;;;;5092261;28;20010;-76
2022/04/04 09:46:16;;;;;;;;;;;12.80;99.90;;;;;;5095458;28;19908;-77
2022/04/04 09:49:08;;;;;;;;;;;12.90;99.90;;;;;;5096265;28;19986;-76
2022/04/04 09:51:34;;;;;;;;;;;12.90;99.90;;;;;;5086376;28;20031;-76
2022/04/04 09:54:02;;;;;;;;;;;13.00;99.90;;;;;;5095298;28;20003;-76
2022/04/04 09:56:28;;;;;;;;;;;13.10;99.90;;;;;;5095101;28;19912;-76
2022/04/04 09:58:54;;;;;;;;;;;13.10;99.90;;;;;;5095246;28;20658;-76
2022/04/04 10:01:20;;;;;;;;;;;13.20;99.90;;;;;;5094698;28;19963;-76
2022/04/04 10:03:46;;;;;;;;;;;13.30;99.90;;;;;;5096185;28;20461;-76
2022/04/04 10:06:12;;;;;;;;;;;13.40;99.90;;;;;;5094492;28;19944;-76
2022/04/04 10:08:38;;;;;;;;;;;13.50;99.90;;;;;;5094126;28;20397;-75
2022/04/04 10:11:13;;;;;;;;;;;13.60;99.90;;;;;;5095461;28;19959;-76
2022/04/04 10:13:38;;;;;;;;;;;13.60;99.90;;;;;;5093971;28;19909;-76
2022/04/04 10:16:05;;;;;;;;;;;13.60;99.90;;;;;;5095178;28;19927;-76
2022/04/04 10:18:31;;;;;;;;;;;13.60;99.90;;;;;;5094826;28;19909;-76
2022/04/04 10:20:57;;;;;;;;;;;13.60;99.90;;;;;;5094641;28;19927;-76
2022/04/04 10:23:24;;;;;;;;;;;13.60;99.90;;;;;;5094058;28;20314;-76
2022/04/04 10:25:51;;;;;;;;;;;13.60;99.90;;;;;;5095208;28;19908;-76
2022/04/04 10:28:35;;;;;;;;;;;13.60;99.90;;;;;;5094127;28;19912;-76
2022/04/04 10:31:10;;;;;;;;;;;13.50;99.90;;;;;;5094859;28;19912;-76
2022/04/04 10:33:35;;;;;;;;;;;13.60;99.90;;;;;;5094852;28;19908;-76
2022/04/04 10:36:05;;;;;;;;;;;13.60;99.90;;;;;;5094828;28;19923;-76
2022/04/04 10:38:33;;;;;;;;;;;13.60;99.90;;;;;;5094344;28;19915;-76
2022/04/04 10:41:01;;;;;;;;;;;13.70;99.90;;;;;;5094561;28;19939;-76
2022/04/04 10:43:30;;;;;;;;;;;13.90;99.90;;;;;;5093779;28;19914;-75
2022/04/04 10:45:57;;;;;;;;;;;13.90;99.90;;;;;;5094264;28;19908;-76
2022/04/04 10:48:30;;;;;;;;;;;13.90;99.90;;;;;;5093826;28;20011;-76
2022/04/04 10:51:18;;;;;;;;;;;14.00;99.90;;;;;;5094343;28;19916;-76
2022/04/04 10:54:01;;;;;;;;;;;13.90;99.90;;;;;;5094687;28;19909;-76
2022/04/04 10:56:28;;;;;;;;;;;13.90;99.90;;;;;;5093140;28;20002;-76
2022/04/04 10:59:13;;;;;;;;;;;13.90;99.90;;;;;;5093991;28;19912;-77
2022/04/04 11:01:39;;;;;;;;;;;13.90;99.90;;;;;;5098822;27;19920;-77
2022/04/04 11:04:05;;;;;;;;;;;13.90;99.90;;;;;;5094155;28;19908;-78
2022/04/04 11:09:36;;;;;;;;;;;13.90;99.90;;;;;;5093287;28;19973;-77
2022/04/04 11:12:08;;;;;;;;;;;14.00;99.90;;;;;;5126911;27;20011;-77
2022/04/04 11:14:39;;;;;;;;;;;14.00;99.90;;;;;;5093766;28;20003;-77
2022/04/04 11:17:52;;;;;;;;;;;14.10;99.90;;;;;;5094013;28;19951;-77
2022/04/04 11:20:03;;;;;;;;;;;14.10;99.90;;;;;;5087985;28;19915;-77
2022/04/04 11:22:29;;;;;;;;;;;14.10;99.90;;;;;;5093877;28;19912;-77
2022/04/04 11:24:58;;;;;;;;;;;14.10;99.90;;;;;;5097305;28;19908;-77
2022/04/04 11:27:25;;;;;;;;;;;14.00;99.90;;;;;;5093127;28;19912;-77
2022/04/04 11:29:51;;;;;;;;;;;14.10;99.90;;;;;;5093543;28;20376;-77
2022/04/04 11:32:34;;;;;;;;;;;14.10;99.90;;;;;;5092783;28;19938;-77
2022/04/04 11:35:14;;;;;;;;;;;14.20;99.90;;;;;;5093366;28;19916;-77
2022/04/04 11:37:49;;;;;;;;;;;14.20;99.90;;;;;;5093489;28;19914;-77
2022/04/04 11:40:17;;;;;;;;;;;14.30;99.90;;;;;;5091513;28;19908;-77
2022/04/04 11:42:47;;;;;;;;;;;14.40;99.90;;;;;;5093213;28;19908;-77
2022/04/04 11:45:17;;;;;;;;;;;14.40;99.90;;;;;;5092896;28;19908;-77
2022/04/04 11:48:02;;;;;;;;;;;14.50;99.90;;;;;;5093309;28;19999;-77
2022/04/04 11:50:30;;;;;;;;;;;14.50;99.90;;;;;;5092640;28;20155;-77
2022/04/04 11:53:02;;;;;;;;;;;14.70;99.90;;;;;;5093220;28;19908;-77
2022/04/04 11:55:28;;;;;;;;;;;14.90;99.90;;;;;;5092306;28;19908;-77
2022/04/04 11:58:01;;;;;;;;;;;15.00;99.90;;;;;;5100416;28;19908;-77
2022/04/04 12:00:30;;;;;;;;;;;15.00;99.90;;;;;;5106694;28;19919;-77
2022/04/04 12:02:56;;;;;;;;;;;15.00;99.90;;;;;;5092965;28;19920;-78
2022/04/04 12:05:23;;;;;;;;;;;14.90;99.90;;;;;;5092375;28;19915;-77
2022/04/04 12:07:50;;;;;;;;;;;14.90;99.90;;;;;;5092377;28;19915;-78
2022/04/04 12:10:31;;;;;;;;;;;14.80;99.90;;;;;;5091928;28;19969;-77
2022/04/04 12:13:02;;;;;;;;;;;14.70;99.90;;;;;;5092739;28;19945;-77
2022/04/04 12:15:31;;;;;;;;;;;14.70;99.90;;;;;;5092208;28;20490;-77
2022/04/04 12:17:58;;;;;;;;;;;14.80;99.90;;;;;;5092937;28;20281;-77
2022/04/04 12:20:24;;;;;;;;;;;14.90;99.90;;;;;;5092444;28;19908;-77
2022/04/04 12:25:34;;;;;;;;;;;15.10;99.90;;;;;;5092562;28;19926;-77
2022/04/04 12:28:00;;;;;;;;;;;15.00;99.90;;;;;;5092340;28;19908;-77
2022/04/04 12:30:30;;;;;;;;;;;15.00;99.90;;;;;;5092208;28;20057;-78
2022/04/04 12:33:05;;;;;;;;;;;14.90;99.90;;;;;;5090832;28;20269;-78
2022/04/04 12:35:31;;;;;;;;;;;14.80;99.90;;;;;;5088974;28;19986;-77
2022/04/04 12:37:59;;;;;;;;;;;14.70;99.90;;;;;;5091507;28;19919;-77
2022/04/04 12:40:25;;;;;;;;;;;14.60;99.90;;;;;;5092042;28;19908;-77
2022/04/04 12:43:04;;;;;;;;;;;14.50;99.90;;;;;;5101987;28;19912;-77
2022/04/04 12:45:31;;;;;;;;;;;14.60;99.90;;;;;;5088221;28;19934;-77
2022/04/04 12:48:00;;;;;;;;;;;14.50;99.90;;;;;;5091291;28;19912;-77
2022/04/04 12:50:36;;;;;;;;;;;14.50;99.90;;;;;;5090656;28;20003;-77
2022/04/04 12:53:04;;;;;;;;;;;14.50;99.90;;;;;;5091274;28;19916;-77
2022/04/04 12:55:29;;;;;;;;;;;14.50;99.90;;;;;;5090339;28;19908;-77
2022/04/04 12:57:55;;;;;;;;;;;14.50;99.90;;;;;;5091290;28;19916;-78
2022/04/04 13:00:28;;;;;;;;;;;14.50;99.90;;;;;;5090536;28;19927;-77
2022/04/04 13:02:54;;;;;;;;;;;14.50;99.90;;;;;;5088965;28;19914;-77
2022/04/04 13:05:23;;;;;;;;;;;14.40;99.90;;;;;;5090328;28;19991;-77
2022/04/04 13:07:49;;;;;;;;;;;14.30;99.90;;;;;;5088509;28;19908;-77
2022/04/04 13:10:15;;;;;;;;;;;14.30;99.90;;;;;;5090309;28;20027;-77
2022/04/04 13:12:41;;;;;;;;;;;14.30;99.90;;;;;;5091132;28;20396;-77
2022/04/04 13:15:08;;;;;;;;;;;14.40;99.90;;;;;;5090840;28;19912;-76
2022/04/04 13:17:35;;;;;;;;;;;14.40;99.90;;;;;;5089826;28;19919;-76
2022/04/04 13:20:01;;;;;;;;;;;14.30;99.90;;;;;;5092909;28;20003;-77
2022/04/04 13:22:26;;;;;;;;;;;14.20;99.90;;;;;;5095170;28;19958;-77
2022/04/04 13:24:52;;;;;;;;;;;14.20;99.90;;;;;;5095437;28;19908;-77
2022/04/04 13:27:21;;;;;;;;;;;14.20;99.90;;;;;;5094614;28;19915;-77
2022/04/04 13:29:47;;;;;;;;;;;14.30;99.90;;;;;;5095367;28;19920;-76
2022/04/04 13:32:12;;;;;;;;;;;14.30;99.90;;;;;;5094797;28;19912;-76
2022/04/04 13:34:38;;;;;;;;;;;14.40;99.90;;;;;;5095310;28;19915;-77
2022/04/04 13:37:04;;;;;;;;;;;14.30;99.90;;;;;;5095280;28;19908;-77
2022/04/04 13:39:29;;;;;;;;;;;14.30;99.90;;;;;;5094795;28;19955;-76
2022/04/04 13:41:55;;;;;;;;;;;14.30;99.90;;;;;;5093776;28;19920;-76
2022/04/04 13:44:20;;;;;;;;;;;14.40;99.90;;;;;;5094403;28;19908;-76
2022/04/04 13:46:46;;;;;;;;;;;14.50;99.90;;;;;;5094689;28;19912;-76
2022/04/04 13:49:12;;;;;;;;;;;14.60;99.90;;;;;;5094427;28;19912;-77
2022/04/04 13:51:37;;;;;;;;;;;14.50;99.90;;;;;;5094784;28;19912;-76
2022/04/04 13:54:03;;;;;;;;;;;14.50;99.90;;;;;;5094881;28;19908;-76
2022/04/04 13:56:30;;;;;;;;;;;14.40;99.90;;;;;;5094397;28;19931;-76
2022/04/04 13:58:56;;;;;;;;;;;14.40;99.90;;;;;;5094748;28;19908;-76
2022/04/04 14:01:23;;;;;;;;;;;14.30;99.90;;;;;;5094143;28;20014;-76
2022/04/04 14:03:51;;;;;;;;;;;14.40;99.90;;;;;;5093690;28;19961;-77
2022/04/04 14:06:17;;;;;;;;;;;14.50;99.90;;;;;;5094129;28;20002;-77
2022/04/04 14:08:42;;;;;;;;;;;14.60;99.90;;;;;;5094559;28;20345;-77
2022/04/04 14:11:09;;;;;;;;;;;14.60;99.90;;;;;;5094218;28;19912;-76
2022/04/04 14:13:35;;;;;;;;;;;14.60;99.90;;;;;;5094437;28;19908;-76
2022/04/04 14:16:01;;;;;;;;;;;14.60;99.90;;;;;;5094631;28;19962;-76
2022/04/04 14:18:27;;;;;;;;;;;14.50;99.90;;;;;;5094554;28;20537;-76
2022/04/04 14:20:52;;;;;;;;;;;14.50;99.90;;;;;;5094019;28;19912;-76
2022/04/04 14:23:18;;;;;;;;;;;14.50;99.90;;;;;;5089649;28;19916;-77
2022/04/04 14:25:44;;;;;;;;;;;14.30;99.90;;;;;;5093557;28;19946;-76